createdAt,value
2018-12-18T00:00:21.416Z,8.50
2018-12-18T00:01:22.389Z,8.50
2018-12-18T00:02:23.375Z,8.50
2018-12-18T00:03:24.463Z,8.50
2018-12-18T00:04:25.546Z,8.50
2018-12-18T00:05:32.599Z,8.60
2018-12-18T00:06:33.675Z,8.60
2018-12-18T00:07:34.767Z,8.50
2018-12-18T00:08:35.858Z,8.60
2018-12-18T00:09:36.941Z,8.60
2018-12-18T00:10:43.971Z,8.60
2018-12-18T00:11:44.944Z,8.60
2018-12-18T00:12:46.251Z,8.60
2018-12-18T00:13:47.350Z,8.60
2018-12-18T00:14:48.512Z,8.60
2018-12-18T00:15:49.735Z,8.60
2018-12-18T00:16:50.826Z,8.60
2018-12-18T00:17:51.815Z,8.50
2018-12-18T00:18:52.776Z,8.50
2018-12-18T00:19:53.750Z,8.50
2018-12-18T00:21:01.679Z,8.50
2018-12-18T00:22:03.291Z,8.50
2018-12-18T00:23:04.300Z,8.50
2018-12-18T00:24:05.292Z,8.50
2018-12-18T00:25:06.473Z,8.50
2018-12-18T00:26:07.555Z,8.50
2018-12-18T00:27:08.531Z,8.50
2018-12-18T00:28:09.620Z,8.40
2018-12-18T00:29:10.612Z,8.40
2018-12-18T00:30:11.591Z,8.40
2018-12-18T00:31:12.560Z,8.50
2018-12-18T00:32:13.533Z,8.50
2018-12-18T00:33:14.519Z,8.50
2018-12-18T00:34:15.475Z,8.50
2018-12-18T00:35:16.472Z,8.50
2018-12-18T00:36:17.460Z,8.50
2018-12-18T00:37:18.432Z,8.50
2018-12-18T00:38:19.420Z,8.50
2018-12-18T00:39:20.392Z,8.60
2018-12-18T00:40:21.611Z,8.60
2018-12-18T00:41:22.809Z,8.60
2018-12-18T00:42:23.774Z,8.60
2018-12-18T00:43:24.769Z,8.60
2018-12-18T00:44:25.744Z,8.60
2018-12-18T00:45:26.729Z,8.60
2018-12-18T00:46:27.712Z,8.60
2018-12-18T00:47:28.679Z,8.70
2018-12-18T00:48:29.755Z,8.60
2018-12-18T00:49:30.843Z,8.70
2018-12-18T00:50:31.918Z,8.70
2018-12-18T00:51:32.910Z,8.70
2018-12-18T00:52:33.878Z,8.70
2018-12-18T00:53:34.855Z,8.70
2018-12-18T00:54:35.835Z,8.70
2018-12-18T00:55:36.849Z,8.70
2018-12-18T00:56:37.816Z,8.70
2018-12-18T00:57:38.832Z,8.80
2018-12-18T00:58:39.820Z,8.80
2018-12-18T00:59:40.811Z,8.80
2018-12-18T01:00:41.902Z,8.80
2018-12-18T01:01:45.100Z,8.80
2018-12-18T01:02:46.067Z,8.70
2018-12-18T01:03:52.563Z,8.70
2018-12-18T01:04:50.040Z,8.70
2018-12-18T01:05:51.356Z,8.70
2018-12-18T01:06:52.815Z,8.70
2018-12-18T01:07:53.952Z,8.70
2018-12-18T01:08:55.085Z,8.70
2018-12-18T01:09:56.055Z,8.70
2018-12-18T01:10:57.190Z,8.70
2018-12-18T01:11:58.180Z,8.60
2018-12-18T01:12:59.163Z,8.60
2018-12-18T01:14:00.270Z,8.60
2018-12-18T01:15:01.266Z,8.60
2018-12-18T01:16:02.444Z,8.60
2018-12-18T01:17:03.660Z,8.60
2018-12-18T01:18:04.641Z,8.60
2018-12-18T01:19:05.628Z,8.60
2018-12-18T01:20:06.711Z,8.60
2018-12-18T01:21:07.701Z,8.60
2018-12-18T01:22:08.700Z,8.60
2018-12-18T01:23:09.664Z,8.60
2018-12-18T01:24:10.756Z,8.60
2018-12-18T01:25:11.940Z,8.70
2018-12-18T01:26:12.912Z,8.60
2018-12-18T01:27:13.884Z,8.60
2018-12-18T01:28:14.854Z,8.60
2018-12-18T01:29:15.835Z,8.60
2018-12-18T01:30:16.798Z,8.50
2018-12-18T01:31:17.767Z,8.50
2018-12-18T01:32:18.748Z,8.50
2018-12-18T01:33:19.727Z,8.50
2018-12-18T01:34:20.692Z,8.40
2018-12-18T01:35:21.732Z,8.40
2018-12-18T01:36:22.713Z,8.40
2018-12-18T01:37:23.688Z,8.40
2018-12-18T01:38:24.660Z,8.40
2018-12-18T01:39:32.733Z,8.30
2018-12-18T01:40:33.712Z,8.30
2018-12-18T01:41:34.699Z,8.30
2018-12-18T01:42:35.667Z,8.20
2018-12-18T01:43:36.951Z,8.20
2018-12-18T01:44:37.924Z,8.10
2018-12-18T01:45:38.911Z,8.10
2018-12-18T01:46:39.883Z,8.10
2018-12-18T01:47:40.863Z,8.00
2018-12-18T01:48:41.845Z,8.00
2018-12-18T01:49:42.823Z,7.90
2018-12-18T01:50:43.891Z,7.90
2018-12-18T01:51:44.967Z,7.90
2018-12-18T01:52:45.935Z,7.80
2018-12-18T01:53:46.944Z,7.80
2018-12-18T01:54:47.912Z,7.80
2018-12-18T01:55:48.934Z,7.80
2018-12-18T01:56:49.916Z,7.80
2018-12-18T01:57:50.888Z,7.80
2018-12-18T01:58:51.877Z,7.70
2018-12-18T01:59:52.866Z,7.70
2018-12-18T02:00:53.836Z,7.70
2018-12-18T02:01:54.829Z,7.60
2018-12-18T02:03:02.781Z,7.60
2018-12-18T02:04:06.058Z,7.60
2018-12-18T02:05:06.966Z,7.60
2018-12-18T02:06:08.270Z,7.60
2018-12-18T02:07:09.543Z,7.60
2018-12-18T02:08:10.515Z,7.60
2018-12-18T02:09:11.503Z,7.50
2018-12-18T02:10:12.469Z,7.60
2018-12-18T02:11:13.487Z,7.60
2018-12-18T02:12:14.456Z,7.60
2018-12-18T02:13:22.489Z,7.60
2018-12-18T02:14:23.571Z,7.60
2018-12-18T02:15:24.821Z,7.60
2018-12-18T02:16:25.889Z,7.60
2018-12-18T02:17:26.981Z,7.60
2018-12-18T02:18:27.954Z,7.70
2018-12-18T02:19:28.973Z,7.60
2018-12-18T02:20:29.974Z,7.70
2018-12-18T02:21:30.963Z,7.70
2018-12-18T02:22:31.936Z,7.70
2018-12-18T02:23:32.901Z,7.70
2018-12-18T02:24:33.883Z,7.70
2018-12-18T02:25:35.323Z,7.70
2018-12-18T02:26:36.302Z,7.70
2018-12-18T02:27:37.291Z,7.70
2018-12-18T02:28:38.305Z,7.70
2018-12-18T02:29:39.275Z,7.60
2018-12-18T02:30:40.306Z,7.60
2018-12-18T02:31:41.274Z,7.50
2018-12-18T02:32:42.344Z,7.70
2018-12-18T02:33:43.360Z,7.70
2018-12-18T02:34:44.328Z,7.70
2018-12-18T02:35:45.423Z,7.70
2018-12-18T02:36:46.517Z,7.70
2018-12-18T02:37:47.607Z,7.70
2018-12-18T02:38:48.620Z,7.70
2018-12-18T02:39:49.609Z,7.70
2018-12-18T02:40:50.737Z,7.70
2018-12-18T02:41:51.722Z,7.70
2018-12-18T02:42:52.711Z,7.70
2018-12-18T02:43:53.692Z,7.70
2018-12-18T02:44:55.352Z,7.70
2018-12-18T02:45:56.323Z,7.70
2018-12-18T02:46:57.408Z,7.70
2018-12-18T02:47:58.503Z,7.70
2018-12-18T02:49:00.198Z,7.60
2018-12-18T02:50:01.382Z,7.70
2018-12-18T02:51:02.565Z,7.70
2018-12-18T02:52:03.548Z,7.70
2018-12-18T02:53:04.548Z,7.70
2018-12-18T02:54:05.640Z,7.70
2018-12-18T02:55:06.829Z,7.70
2018-12-18T02:56:07.911Z,7.70
2018-12-18T02:57:08.887Z,7.70
2018-12-18T02:58:09.871Z,7.70
2018-12-18T02:59:10.853Z,7.70
2018-12-18T03:00:12.254Z,7.70
2018-12-18T03:01:13.355Z,7.70
2018-12-18T03:02:14.447Z,7.70
2018-12-18T03:03:15.431Z,7.70
2018-12-18T03:04:21.388Z,7.70
2018-12-18T03:05:19.756Z,7.80
2018-12-18T03:06:20.741Z,7.80
2018-12-18T03:07:21.730Z,7.80
2018-12-18T03:08:22.796Z,7.90
2018-12-18T03:09:23.913Z,7.90
2018-12-18T03:10:24.890Z,7.80
2018-12-18T03:11:25.878Z,7.80
2018-12-18T03:12:26.962Z,7.80
2018-12-18T03:13:27.940Z,7.80
2018-12-18T03:14:28.907Z,7.80
2018-12-18T03:15:29.897Z,7.80
2018-12-18T03:16:30.863Z,7.80
2018-12-18T03:17:31.834Z,7.80
2018-12-18T03:18:32.810Z,7.80
2018-12-18T03:19:33.817Z,7.80
2018-12-18T03:20:34.908Z,7.80
2018-12-18T03:21:35.979Z,7.80
2018-12-18T03:22:36.966Z,7.70
2018-12-18T03:23:38.040Z,7.70
2018-12-18T03:24:39.176Z,7.70
2018-12-18T03:25:40.184Z,7.80
2018-12-18T03:26:48.279Z,7.80
2018-12-18T03:27:49.270Z,7.80
2018-12-18T03:28:50.677Z,7.70
2018-12-18T03:29:51.781Z,7.70
2018-12-18T03:30:52.965Z,7.70
2018-12-18T03:31:54.462Z,7.70
2018-12-18T03:32:55.851Z,7.70
2018-12-18T03:33:57.097Z,7.70
2018-12-18T03:34:58.059Z,7.60
2018-12-18T03:35:59.147Z,7.60
2018-12-18T03:37:00.146Z,7.60
2018-12-18T03:38:01.241Z,7.60
2018-12-18T03:39:04.216Z,7.60
2018-12-18T03:40:05.712Z,7.60
2018-12-18T03:41:06.687Z,7.60
2018-12-18T03:42:07.656Z,7.60
2018-12-18T03:43:15.509Z,7.50
2018-12-18T03:44:16.595Z,7.50
2018-12-18T03:45:17.569Z,7.50
2018-12-18T03:46:18.551Z,7.50
2018-12-18T03:47:19.561Z,7.50
2018-12-18T03:48:20.537Z,7.50
2018-12-18T03:49:21.539Z,7.50
2018-12-18T03:50:22.607Z,7.30
2018-12-18T03:51:23.691Z,7.40
2018-12-18T03:52:24.670Z,7.40
2018-12-18T03:53:25.852Z,7.40
2018-12-18T03:54:26.836Z,7.40
2018-12-18T03:55:27.908Z,7.40
2018-12-18T03:56:28.989Z,7.40
2018-12-18T03:57:30.079Z,7.40
2018-12-18T03:58:31.128Z,7.40
2018-12-18T03:59:32.122Z,7.40
2018-12-18T04:00:33.180Z,7.40
2018-12-18T04:01:34.252Z,7.40
2018-12-18T04:02:35.436Z,7.40
2018-12-18T04:03:36.936Z,7.40
2018-12-18T04:04:38.028Z,7.40
2018-12-18T04:05:39.014Z,7.40
2018-12-18T04:06:40.108Z,7.30
2018-12-18T04:07:41.073Z,7.30
2018-12-18T04:08:42.039Z,7.30
2018-12-18T04:09:43.352Z,7.30
2018-12-18T04:10:44.449Z,7.30
2018-12-18T04:11:51.623Z,7.30
2018-12-18T04:12:52.733Z,7.30
2018-12-18T04:13:53.693Z,7.30
2018-12-18T04:14:54.699Z,7.20
2018-12-18T04:15:55.959Z,7.20
2018-12-18T04:16:56.952Z,7.20
2018-12-18T04:17:58.026Z,7.20
2018-12-18T04:18:59.046Z,7.20
2018-12-18T04:20:00.029Z,7.20
2018-12-18T04:21:01.032Z,7.20
2018-12-18T04:22:02.015Z,7.20
2018-12-18T04:23:03.120Z,7.20
2018-12-18T04:24:04.094Z,7.20
2018-12-18T04:25:05.181Z,7.20
2018-12-18T04:26:06.169Z,7.10
2018-12-18T04:27:07.344Z,7.10
2018-12-18T04:28:08.317Z,7.10
2018-12-18T04:29:09.308Z,7.10
2018-12-18T04:30:10.518Z,7.10
2018-12-18T04:31:11.589Z,7.10
2018-12-18T04:32:12.619Z,7.10
2018-12-18T04:33:13.586Z,7.20
2018-12-18T04:34:14.573Z,7.20
2018-12-18T04:35:15.564Z,7.20
2018-12-18T04:36:16.540Z,7.30
2018-12-18T04:37:17.608Z,7.20
2018-12-18T04:38:18.601Z,7.20
2018-12-18T04:39:19.572Z,7.20
2018-12-18T04:40:20.543Z,7.20
2018-12-18T04:41:21.549Z,7.20
2018-12-18T04:42:22.525Z,7.20
2018-12-18T04:43:23.484Z,7.20
2018-12-18T04:44:24.479Z,7.20
2018-12-18T04:45:25.490Z,7.20
2018-12-18T04:46:26.488Z,7.20
2018-12-18T04:47:34.360Z,7.20
2018-12-18T04:48:35.346Z,7.10
2018-12-18T04:49:36.316Z,7.10
2018-12-18T04:50:37.304Z,7.10
2018-12-18T04:51:38.291Z,7.10
2018-12-18T04:52:39.284Z,7.10
2018-12-18T04:53:40.379Z,7.10
2018-12-18T04:54:41.472Z,7.10
2018-12-18T04:55:42.533Z,7.10
2018-12-18T04:56:43.515Z,7.00
2018-12-18T04:57:44.620Z,7.00
2018-12-18T04:58:45.778Z,7.00
2018-12-18T04:59:46.768Z,7.00
2018-12-18T05:00:47.754Z,7.00
2018-12-18T05:01:48.873Z,7.00
2018-12-18T05:02:49.840Z,7.00
2018-12-18T05:03:50.818Z,7.00
2018-12-18T05:04:51.836Z,7.00
2018-12-18T05:05:52.911Z,7.00
2018-12-18T05:06:53.943Z,7.00
2018-12-18T05:07:55.280Z,7.00
2018-12-18T05:08:56.262Z,7.00
2018-12-18T05:09:57.252Z,6.90
2018-12-18T05:10:58.231Z,6.90
2018-12-18T05:11:59.223Z,6.90
2018-12-18T05:13:00.193Z,6.90
2018-12-18T05:14:01.436Z,6.90
2018-12-18T05:15:03.090Z,6.90
2018-12-18T05:16:04.089Z,6.90
2018-12-18T05:17:05.067Z,6.90
2018-12-18T05:18:06.056Z,6.90
2018-12-18T05:19:07.034Z,6.90
2018-12-18T05:20:08.141Z,6.90
2018-12-18T05:21:09.110Z,6.90
2018-12-18T05:22:10.098Z,6.90
2018-12-18T05:23:11.269Z,6.90
2018-12-18T05:24:12.353Z,6.90
2018-12-18T05:25:13.357Z,6.90
2018-12-18T05:26:14.318Z,6.80
2018-12-18T05:27:15.291Z,6.80
2018-12-18T05:28:16.421Z,6.80
2018-12-18T05:29:17.474Z,6.80
2018-12-18T05:30:18.476Z,6.80
2018-12-18T05:31:19.484Z,6.80
2018-12-18T05:32:20.462Z,6.60
2018-12-18T05:33:21.470Z,6.80
2018-12-18T05:34:22.501Z,6.80
2018-12-18T05:35:23.519Z,6.80
2018-12-18T05:36:25.970Z,6.80
2018-12-18T05:37:27.369Z,6.80
2018-12-18T05:38:28.352Z,6.80
2018-12-18T05:39:29.382Z,6.80
2018-12-18T05:40:30.458Z,6.80
2018-12-18T05:41:31.460Z,6.80
2018-12-18T05:42:32.475Z,6.80
2018-12-18T05:43:33.589Z,6.80
2018-12-18T05:44:34.623Z,6.70
2018-12-18T05:45:35.651Z,6.70
2018-12-18T05:46:36.626Z,6.70
2018-12-18T05:47:37.608Z,6.70
2018-12-18T05:48:38.883Z,6.70
2018-12-18T05:49:39.876Z,6.80
2018-12-18T05:50:40.965Z,6.80
2018-12-18T05:51:41.972Z,6.80
2018-12-18T05:52:42.955Z,6.80
2018-12-18T05:53:43.949Z,6.80
2018-12-18T05:54:44.949Z,6.80
2018-12-18T05:55:46.066Z,6.70
2018-12-18T05:56:47.048Z,6.70
2018-12-18T05:57:48.242Z,6.80
2018-12-18T05:58:49.216Z,6.70
2018-12-18T05:59:50.784Z,6.70
2018-12-18T06:00:51.914Z,6.60
2018-12-18T06:01:52.897Z,6.60
2018-12-18T06:02:54.431Z,6.60
2018-12-18T06:03:55.435Z,6.60
2018-12-18T06:05:03.021Z,6.60
2018-12-18T06:05:59.542Z,6.50
2018-12-18T06:07:00.528Z,6.50
2018-12-18T06:08:01.530Z,6.50
2018-12-18T06:09:04.848Z,6.50
2018-12-18T06:10:12.763Z,6.50
2018-12-18T06:11:13.800Z,6.60
2018-12-18T06:12:21.663Z,6.50
2018-12-18T06:13:22.990Z,6.40
2018-12-18T06:14:24.108Z,6.60
2018-12-18T06:15:25.351Z,6.60
2018-12-18T06:16:27.142Z,6.60
2018-12-18T06:17:28.378Z,6.50
2018-12-18T06:18:29.411Z,6.50
2018-12-18T06:19:30.585Z,6.50
2018-12-18T06:20:31.632Z,6.40
2018-12-18T06:21:32.618Z,6.40
2018-12-18T06:22:33.645Z,6.40
2018-12-18T06:23:35.328Z,6.40
2018-12-18T06:24:36.331Z,6.40
2018-12-18T06:25:37.416Z,6.40
2018-12-18T06:26:39.544Z,6.40
2018-12-18T06:27:40.593Z,6.30
2018-12-18T06:28:41.734Z,6.30
2018-12-18T06:29:42.906Z,6.30
2018-12-18T06:30:43.936Z,6.30
2018-12-18T06:31:44.971Z,6.20
2018-12-18T06:32:46.037Z,6.20
2018-12-18T06:33:47.159Z,6.10
2018-12-18T06:34:48.160Z,6.10
2018-12-18T06:35:49.293Z,6.10
2018-12-18T06:36:51.436Z,6.00
2018-12-18T06:37:52.424Z,6.00
2018-12-18T06:38:53.419Z,6.00
2018-12-18T06:39:55.216Z,6.00
2018-12-18T06:40:56.222Z,6.00
2018-12-18T06:42:04.331Z,5.90
2018-12-18T06:43:06.108Z,5.90
2018-12-18T06:44:07.125Z,5.90
2018-12-18T06:45:08.255Z,5.90
2018-12-18T06:46:09.548Z,5.90
2018-12-18T06:47:10.637Z,5.90
2018-12-18T06:48:11.652Z,6.10
2018-12-18T06:49:13.832Z,5.90
2018-12-18T06:50:14.844Z,5.90
2018-12-18T06:51:15.869Z,6.00
2018-12-18T06:52:16.894Z,5.90
2018-12-18T06:53:18.847Z,6.00
2018-12-18T06:54:19.844Z,6.00
2018-12-18T06:55:21.892Z,6.00
2018-12-18T06:56:22.904Z,6.00
2018-12-18T06:57:24.033Z,6.00
2018-12-18T06:58:25.063Z,6.00
2018-12-18T06:59:26.240Z,6.00
2018-12-18T07:00:27.229Z,5.90
2018-12-18T07:01:28.228Z,5.90
2018-12-18T07:02:29.224Z,5.90
2018-12-18T07:03:30.228Z,5.90
2018-12-18T07:04:31.216Z,5.90
2018-12-18T07:05:32.272Z,5.90
2018-12-18T07:06:33.378Z,5.80
2018-12-18T07:07:34.510Z,5.90
2018-12-18T07:08:35.510Z,5.80
2018-12-18T07:09:36.508Z,5.80
2018-12-18T07:10:37.499Z,5.80
2018-12-18T07:11:38.568Z,5.80
2018-12-18T07:12:39.544Z,5.70
2018-12-18T07:13:40.914Z,5.70
2018-12-18T07:14:42.057Z,5.70
2018-12-18T07:15:43.376Z,5.70
2018-12-18T07:16:44.587Z,5.70
2018-12-18T07:17:45.764Z,5.70
2018-12-18T07:18:46.727Z,5.60
2018-12-18T07:19:47.759Z,5.60
2018-12-18T07:20:48.736Z,5.60
2018-12-18T07:21:49.759Z,5.60
2018-12-18T07:22:51.100Z,5.60
2018-12-18T07:23:52.134Z,5.60
2018-12-18T07:24:53.142Z,5.50
2018-12-18T07:25:54.192Z,5.50
2018-12-18T07:26:55.239Z,5.50
2018-12-18T07:28:03.055Z,5.50
2018-12-18T07:29:04.109Z,5.40
2018-12-18T07:30:06.235Z,5.40
2018-12-18T07:31:07.388Z,5.40
2018-12-18T07:32:08.646Z,5.30
2018-12-18T07:33:09.659Z,5.30
2018-12-18T07:34:10.763Z,5.30
2018-12-18T07:35:11.866Z,5.30
2018-12-18T07:36:12.862Z,5.40
2018-12-18T07:37:13.948Z,5.30
2018-12-18T07:38:14.936Z,5.30
2018-12-18T07:39:15.940Z,5.20
2018-12-18T07:40:17.023Z,5.30
2018-12-18T07:41:18.111Z,5.30
2018-12-18T07:42:19.121Z,5.20
2018-12-18T07:43:20.116Z,5.20
2018-12-18T07:44:21.325Z,5.20
2018-12-18T07:45:22.761Z,5.20
2018-12-18T07:46:23.810Z,5.20
2018-12-18T07:47:24.785Z,5.30
2018-12-18T07:48:25.792Z,5.20
2018-12-18T07:49:26.918Z,5.20
2018-12-18T07:50:28.023Z,5.20
2018-12-18T07:51:29.151Z,5.30
2018-12-18T07:52:30.172Z,5.30
2018-12-18T07:53:31.264Z,5.30
2018-12-18T07:54:32.393Z,5.30
2018-12-18T07:55:33.387Z,5.30
2018-12-18T07:56:34.368Z,5.30
2018-12-18T07:57:35.472Z,5.30
2018-12-18T07:58:36.456Z,5.30
2018-12-18T07:59:37.435Z,5.30
2018-12-18T08:00:39.423Z,5.40
2018-12-18T08:01:40.568Z,5.40
2018-12-18T08:02:41.550Z,5.30
2018-12-18T08:03:42.647Z,5.30
2018-12-18T08:04:43.684Z,5.30
2018-12-18T08:05:44.677Z,5.30
2018-12-18T08:06:45.694Z,5.40
2018-12-18T08:07:46.797Z,5.40
2018-12-18T08:08:47.790Z,5.40
2018-12-18T08:09:48.907Z,5.50
2018-12-18T08:10:50.001Z,5.40
2018-12-18T08:11:51.077Z,5.40
2018-12-18T08:12:52.119Z,5.40
2018-12-18T08:13:53.108Z,5.40
2018-12-18T08:14:54.111Z,5.40
2018-12-18T08:15:55.095Z,5.50
2018-12-18T08:16:56.110Z,5.40
2018-12-18T08:17:57.118Z,5.30
2018-12-18T08:18:58.225Z,5.40
2018-12-18T08:19:59.333Z,5.40
2018-12-18T08:21:00.376Z,5.40
2018-12-18T08:22:01.383Z,5.40
2018-12-18T08:23:02.481Z,5.30
2018-12-18T08:24:03.609Z,5.40
2018-12-18T08:25:05.777Z,5.40
2018-12-18T08:26:06.823Z,5.40
2018-12-18T08:27:07.801Z,5.40
2018-12-18T08:28:08.792Z,5.40
2018-12-18T08:29:09.791Z,5.40
2018-12-18T08:30:10.898Z,5.40
2018-12-18T08:31:11.994Z,5.40
2018-12-18T08:32:13.064Z,5.40
2018-12-18T08:33:21.062Z,5.40
2018-12-18T08:34:22.045Z,5.20
2018-12-18T08:35:23.101Z,5.30
2018-12-18T08:36:24.129Z,5.50
2018-12-18T08:37:25.152Z,5.50
2018-12-18T08:38:26.425Z,5.50
2018-12-18T08:39:27.404Z,5.50
2018-12-18T08:40:28.401Z,5.50
2018-12-18T08:41:29.464Z,5.50
2018-12-18T08:42:30.508Z,5.50
2018-12-18T08:43:31.564Z,5.60
2018-12-18T08:44:32.672Z,5.60
2018-12-18T08:45:33.662Z,5.70
2018-12-18T08:46:34.661Z,5.60
2018-12-18T08:47:35.789Z,5.60
2018-12-18T08:48:36.821Z,5.60
2018-12-18T08:49:37.806Z,5.70
2018-12-18T08:50:38.793Z,5.70
2018-12-18T08:51:40.132Z,5.70
2018-12-18T08:52:41.141Z,5.70
2018-12-18T08:53:42.133Z,5.70
2018-12-18T08:54:43.168Z,5.70
2018-12-18T08:55:44.204Z,5.70
2018-12-18T08:56:45.250Z,5.70
2018-12-18T08:57:46.356Z,5.70
2018-12-18T08:58:47.359Z,5.70
2018-12-18T08:59:48.364Z,5.70
2018-12-18T09:00:49.358Z,5.70
2018-12-18T09:01:57.461Z,5.70
2018-12-18T09:02:58.451Z,5.70
2018-12-18T09:03:59.452Z,5.70
2018-12-18T09:05:00.440Z,5.80
2018-12-18T09:06:01.529Z,5.80
2018-12-18T09:07:02.555Z,5.80
2018-12-18T09:08:03.636Z,5.80
2018-12-18T09:09:05.692Z,5.90
2018-12-18T09:10:07.636Z,5.90
2018-12-18T09:11:08.631Z,5.90
2018-12-18T09:12:11.654Z,6.00
2018-12-18T09:13:12.680Z,6.00
2018-12-18T09:14:13.652Z,6.00
2018-12-18T09:15:20.864Z,6.10
2018-12-18T09:16:28.076Z,6.10
2018-12-18T09:17:35.068Z,6.10
2018-12-18T09:18:36.116Z,6.20
2018-12-18T09:19:37.101Z,6.20
2018-12-18T09:20:38.107Z,6.20
2018-12-18T09:21:39.084Z,6.20
2018-12-18T09:22:40.085Z,6.20
2018-12-18T09:23:41.592Z,6.20
2018-12-18T09:24:42.564Z,6.30
2018-12-18T09:25:43.658Z,6.30
2018-12-18T09:26:44.685Z,6.30
2018-12-18T09:27:45.660Z,6.30
2018-12-18T09:28:48.315Z,6.30
2018-12-18T09:29:49.297Z,6.20
2018-12-18T09:30:50.288Z,6.20
2018-12-18T09:31:51.268Z,6.30
2018-12-18T09:32:53.808Z,6.20
2018-12-18T09:33:54.868Z,6.30
2018-12-18T09:34:55.866Z,6.20
2018-12-18T09:35:56.871Z,6.20
2018-12-18T09:36:57.884Z,6.20
2018-12-18T09:38:05.049Z,6.20
2018-12-18T09:39:12.503Z,6.20
2018-12-18T09:40:15.501Z,6.30
2018-12-18T09:41:25.872Z,6.30
2018-12-18T09:42:33.109Z,6.40
2018-12-18T09:43:40.165Z,6.40
2018-12-18T09:44:41.324Z,6.40
2018-12-18T09:45:42.423Z,6.40
2018-12-18T09:46:43.551Z,6.40
2018-12-18T09:47:44.658Z,6.40
2018-12-18T09:48:45.659Z,6.40
2018-12-18T09:49:46.657Z,6.40
2018-12-18T09:50:47.750Z,6.40
2018-12-18T09:51:48.841Z,6.40
2018-12-18T09:52:49.929Z,6.40
2018-12-18T09:53:50.913Z,6.40
2018-12-18T09:54:51.910Z,6.40
2018-12-18T09:55:52.919Z,6.40
2018-12-18T09:56:54.310Z,6.40
2018-12-18T09:57:57.395Z,6.50
2018-12-18T09:58:58.932Z,6.50
2018-12-18T10:00:00.009Z,6.50
2018-12-18T10:01:01.140Z,6.50
2018-12-18T10:02:02.411Z,6.60
2018-12-18T10:03:03.491Z,6.50
2018-12-18T10:04:04.498Z,6.60
2018-12-18T10:05:05.564Z,6.60
2018-12-18T10:06:06.558Z,6.70
2018-12-18T10:07:07.622Z,6.70
2018-12-18T10:08:08.640Z,6.60
2018-12-18T10:09:10.021Z,6.60
2018-12-18T10:10:11.140Z,6.70
2018-12-18T10:11:12.151Z,6.60
2018-12-18T10:12:15.262Z,6.70
2018-12-18T10:13:16.380Z,6.70
2018-12-18T10:14:17.479Z,6.70
2018-12-18T10:15:18.618Z,6.80
2018-12-18T10:16:19.722Z,6.80
2018-12-18T10:17:20.731Z,6.80
2018-12-18T10:18:21.720Z,6.80
2018-12-18T10:19:23.360Z,6.90
2018-12-18T10:20:24.396Z,6.90
2018-12-18T10:21:25.532Z,6.90
2018-12-18T10:22:26.585Z,6.90
2018-12-18T10:23:27.683Z,6.90
2018-12-18T10:24:28.701Z,7.00
2018-12-18T10:25:29.724Z,7.00
2018-12-18T10:26:30.718Z,7.00
2018-12-18T10:27:31.720Z,7.00
2018-12-18T10:28:32.761Z,7.00
2018-12-18T10:29:33.813Z,7.00
2018-12-18T10:30:35.053Z,6.90
2018-12-18T10:31:36.128Z,6.90
2018-12-18T10:32:37.149Z,6.90
2018-12-18T10:33:38.291Z,6.90
2018-12-18T10:34:39.396Z,7.00
2018-12-18T10:35:40.707Z,7.10
2018-12-18T10:36:41.820Z,7.00
2018-12-18T10:37:42.908Z,7.10
2018-12-18T10:38:44.055Z,7.00
2018-12-18T10:39:45.352Z,7.00
2018-12-18T10:40:46.621Z,7.00
2018-12-18T10:41:47.707Z,6.90
2018-12-18T10:42:48.690Z,6.90
2018-12-18T10:43:49.754Z,6.90
2018-12-18T10:44:50.772Z,6.90
2018-12-18T10:45:51.865Z,6.90
2018-12-18T10:46:52.882Z,6.90
2018-12-18T10:47:53.895Z,7.00
2018-12-18T10:48:54.893Z,6.90
2018-12-18T10:49:55.927Z,6.90
2018-12-18T10:50:57.119Z,6.90
2018-12-18T10:51:58.206Z,7.00
2018-12-18T10:52:59.377Z,7.00
2018-12-18T10:54:00.574Z,7.00
2018-12-18T10:55:01.636Z,7.00
2018-12-18T10:56:02.994Z,7.00
2018-12-18T10:57:03.967Z,7.00
2018-12-18T10:58:05.032Z,7.00
2018-12-18T10:59:06.216Z,7.00
2018-12-18T11:00:10.776Z,7.10
2018-12-18T11:01:12.809Z,7.20
2018-12-18T11:02:13.826Z,7.20
2018-12-18T11:03:15.062Z,7.30
2018-12-18T11:04:16.299Z,7.30
2018-12-18T11:05:17.432Z,7.30
2018-12-18T11:06:18.558Z,7.40
2018-12-18T11:07:19.565Z,7.40
2018-12-18T11:08:20.559Z,7.40
2018-12-18T11:09:21.573Z,7.50
2018-12-18T11:10:22.898Z,7.40
2018-12-18T11:11:23.990Z,7.40
2018-12-18T11:12:39.939Z,7.40
2018-12-18T11:13:41.026Z,7.40
2018-12-18T11:14:42.119Z,7.40
2018-12-18T11:15:43.543Z,7.40
2018-12-18T11:16:44.875Z,7.40
2018-12-18T11:17:45.905Z,7.40
2018-12-18T11:18:47.186Z,7.50
2018-12-18T11:19:49.607Z,7.50
2018-12-18T11:20:51.019Z,7.60
2018-12-18T11:21:52.145Z,7.60
2018-12-18T11:22:53.115Z,7.60
2018-12-18T11:23:54.173Z,7.60
2018-12-18T11:24:55.255Z,7.50
2018-12-18T11:25:56.366Z,7.50
2018-12-18T11:26:57.443Z,7.50
2018-12-18T11:27:58.550Z,7.50
2018-12-18T11:28:59.681Z,7.50
2018-12-18T11:30:00.848Z,7.60
2018-12-18T11:31:01.882Z,7.60
2018-12-18T11:32:02.939Z,7.70
2018-12-18T11:33:04.030Z,7.70
2018-12-18T11:34:05.074Z,7.70
2018-12-18T11:35:06.142Z,7.70
2018-12-18T11:36:07.395Z,7.70
2018-12-18T11:37:08.453Z,7.70
2018-12-18T11:38:09.553Z,7.70
2018-12-18T11:39:10.572Z,7.80
2018-12-18T11:40:12.117Z,7.80
2018-12-18T11:41:13.556Z,7.90
2018-12-18T11:42:14.627Z,7.90
2018-12-18T11:43:15.644Z,7.90
2018-12-18T11:44:16.672Z,7.90
2018-12-18T11:45:17.706Z,7.90
2018-12-18T11:46:18.815Z,7.90
2018-12-18T11:47:19.874Z,8.00
2018-12-18T11:48:21.001Z,8.00
2018-12-18T11:49:22.037Z,8.10
2018-12-18T11:50:23.132Z,8.10
2018-12-18T11:51:24.151Z,8.10
2018-12-18T11:52:25.238Z,8.20
2018-12-18T11:53:26.232Z,8.20
2018-12-18T11:54:27.228Z,8.20
2018-12-18T11:55:28.561Z,8.30
2018-12-18T11:56:29.574Z,8.30
2018-12-18T11:57:30.600Z,8.30
2018-12-18T11:58:31.612Z,8.40
2018-12-18T11:59:32.781Z,8.40
2018-12-18T12:00:33.985Z,8.40
2018-12-18T12:01:35.528Z,8.40
2018-12-18T12:02:42.703Z,8.40
2018-12-18T12:03:39.615Z,8.30
2018-12-18T12:04:40.604Z,8.30
2018-12-18T12:05:41.740Z,8.30
2018-12-18T12:06:42.812Z,8.30
2018-12-18T12:07:44.579Z,8.30
2018-12-18T12:08:45.547Z,8.30
2018-12-18T12:09:46.660Z,8.40
2018-12-18T12:10:47.675Z,8.40
2018-12-18T12:11:48.727Z,8.50
2018-12-18T12:12:49.762Z,8.50
2018-12-18T12:13:50.745Z,8.50
2018-12-18T12:14:51.999Z,8.60
2018-12-18T12:15:52.988Z,8.60
2018-12-18T12:16:54.110Z,8.70
2018-12-18T12:17:55.325Z,8.70
2018-12-18T12:18:56.300Z,8.70
2018-12-18T12:19:57.738Z,8.70
2018-12-18T12:20:58.734Z,8.80
2018-12-18T12:21:59.823Z,8.80
2018-12-18T12:23:01.014Z,8.80
2018-12-18T12:24:02.120Z,8.90
2018-12-18T12:25:05.792Z,8.90
2018-12-18T12:26:12.910Z,8.90
2018-12-18T12:27:19.923Z,8.90
2018-12-18T12:28:20.909Z,8.90
2018-12-18T12:29:21.933Z,8.90
2018-12-18T12:30:23.025Z,9.00
2018-12-18T12:31:30.892Z,9.00
2018-12-18T12:32:32.773Z,9.10
2018-12-18T12:33:33.949Z,8.90
2018-12-18T12:34:35.080Z,9.00
2018-12-18T12:35:36.086Z,9.10
2018-12-18T12:36:37.105Z,9.10
2018-12-18T12:37:39.211Z,9.10
2018-12-18T12:38:40.212Z,9.20
2018-12-18T12:39:41.221Z,9.20
2018-12-18T12:40:42.278Z,9.20
2018-12-18T12:41:43.541Z,9.30
2018-12-18T12:42:44.575Z,9.30
2018-12-18T12:43:45.575Z,9.30
2018-12-18T12:44:46.668Z,9.40
2018-12-18T12:45:47.692Z,9.40
2018-12-18T12:46:48.703Z,9.40
2018-12-18T12:47:51.018Z,9.40
2018-12-18T12:48:53.263Z,9.50
2018-12-18T12:49:54.271Z,9.50
2018-12-18T12:50:55.261Z,9.60
2018-12-18T12:51:56.263Z,9.60
2018-12-18T12:52:57.426Z,9.70
2018-12-18T12:53:58.422Z,9.70
2018-12-18T12:54:59.454Z,9.70
2018-12-18T12:56:00.544Z,9.70
2018-12-18T12:57:01.691Z,9.80
2018-12-18T12:58:02.692Z,9.80
2018-12-18T12:59:03.714Z,9.70
2018-12-18T13:00:06.443Z,9.80
2018-12-18T13:01:07.478Z,9.80
2018-12-18T13:02:08.473Z,9.80
2018-12-18T13:03:09.511Z,9.80
2018-12-18T13:04:10.531Z,9.90
2018-12-18T13:05:12.125Z,9.80
2018-12-18T13:06:13.210Z,9.90
2018-12-18T13:07:14.219Z,9.90
2018-12-18T13:08:15.231Z,9.90
2018-12-18T13:09:16.215Z,10.00
2018-12-18T13:10:17.207Z,10.00
2018-12-18T13:11:18.196Z,10.00
2018-12-18T13:12:19.196Z,10.00
2018-12-18T13:13:20.198Z,10.10
2018-12-18T13:14:21.188Z,10.10
2018-12-18T13:15:22.214Z,10.10
2018-12-18T13:16:23.203Z,10.20
2018-12-18T13:17:24.176Z,10.10
2018-12-18T13:18:25.313Z,10.10
2018-12-18T13:19:26.398Z,10.20
2018-12-18T13:20:27.376Z,10.20
2018-12-18T13:21:28.460Z,10.20
2018-12-18T13:22:29.464Z,10.30
2018-12-18T13:23:30.517Z,10.30
2018-12-18T13:24:31.504Z,10.30
2018-12-18T13:25:32.493Z,10.30
2018-12-18T13:26:33.615Z,10.30
2018-12-18T13:27:34.600Z,10.30
2018-12-18T13:28:35.573Z,10.30
2018-12-18T13:29:43.951Z,10.20
2018-12-18T13:30:45.056Z,10.40
2018-12-18T13:31:46.272Z,10.40
2018-12-18T13:32:47.267Z,10.40
2018-12-18T13:33:48.277Z,10.40
2018-12-18T13:34:49.481Z,10.40
2018-12-18T13:35:50.697Z,10.40